sensor_id;sensor_type;location;lat;lon;timestamp;temperature;humidity
25112;DHT22;13092;51.996;4.458;2022-10-16T00:01:08;15.80;99.90
25112;DHT22;13092;51.996;4.458;2022-10-16T00:03:37;15.80;99.90
25112;DHT22;13092;51.996;4.458;2022-10-16T00:06:06;15.90;99.90
25112;DHT22;13092;51.996;4.458;2022-10-16T00:08:35;15.90;99.90
25112;DHT22;13092;51.996;4.458;2022-10-16T00:11:08;15.90;99.90
25112;DHT22;13092;51.996;4.458;2022-10-16T00:13:39;15.90;99.90
25112;DHT22;13092;51.996;4.458;2022-10-16T00:16:08;15.90;99.90
25112;DHT22;13092;51.996;4.458;2022-10-16T00:18:37;15.90;99.90
25112;DHT22;13092;51.996;4.458;2022-10-16T00:21:08;15.90;99.90
25112;DHT22;13092;51.996;4.458;2022-10-16T00:23:37;15.90;99.90
25112;DHT22;13092;51.996;4.458;2022-10-16T00:26:09;15.90;99.90
25112;DHT22;13092;51.996;4.458;2022-10-16T00:28:37;15.90;99.90
25112;DHT22;13092;51.996;4.458;2022-10-16T00:31:08;15.90;99.90
25112;DHT22;13092;51.996;4.458;2022-10-16T00:33:37;16.00;99.90
25112;DHT22;13092;51.996;4.458;2022-10-16T00:36:07;16.00;99.90
25112;DHT22;13092;51.996;4.458;2022-10-16T00:38:35;16.00;99.90
25112;DHT22;13092;51.996;4.458;2022-10-16T00:41:06;16.00;99.90
25112;DHT22;13092;51.996;4.458;2022-10-16T00:43:38;16.00;99.90
25112;DHT22;13092;51.996;4.458;2022-10-16T00:46:15;16.00;99.90
25112;DHT22;13092;51.996;4.458;2022-10-16T00:48:48;16.10;99.90
25112;DHT22;13092;51.996;4.458;2022-10-16T00:51:19;16.10;99.90
25112;DHT22;13092;51.996;4.458;2022-10-16T00:53:50;16.10;99.90
25112;DHT22;13092;51.996;4.458;2022-10-16T00:56:19;16.10;99.90
25112;DHT22;13092;51.996;4.458;2022-10-16T00:58:47;16.00;99.90
25112;DHT22;13092;51.996;4.458;2022-10-16T01:01:15;16.10;99.90
25112;DHT22;13092;51.996;4.458;2022-10-16T01:03:44;16.00;99.90
25112;DHT22;13092;51.996;4.458;2022-10-16T01:06:22;16.00;99.90
25112;DHT22;13092;51.996;4.458;2022-10-16T01:09:14;15.90;99.90
25112;DHT22;13092;51.996;4.458;2022-10-16T01:11:56;15.80;99.90
25112;DHT22;13092;51.996;4.458;2022-10-16T01:14:30;15.80;99.90
25112;DHT22;13092;51.996;4.458;2022-10-16T01:17:04;15.70;99.90
25112;DHT22;13092;51.996;4.458;2022-10-16T01:19:50;15.70;99.90
25112;DHT22;13092;51.996;4.458;2022-10-16T01:22:23;15.70;99.90
25112;DHT22;13092;51.996;4.458;2022-10-16T01:24:55;15.60;99.90
25112;DHT22;13092;51.996;4.458;2022-10-16T01:27:27;15.60;99.90
25112;DHT22;13092;51.996;4.458;2022-10-16T01:30:02;15.60;99.90
25112;DHT22;13092;51.996;4.458;2022-10-16T01:32:36;15.50;99.90
25112;DHT22;13092;51.996;4.458;2022-10-16T01:35:09;15.50;99.90
25112;DHT22;13092;51.996;4.458;2022-10-16T01:37:43;15.30;99.90
25112;DHT22;13092;51.996;4.458;2022-10-16T01:40:15;15.40;99.90
25112;DHT22;13092;51.996;4.458;2022-10-16T01:42:50;15.40;99.90
25112;DHT22;13092;51.996;4.458;2022-10-16T01:45:20;15.30;99.90
25112;DHT22;13092;51.996;4.458;2022-10-16T01:47:49;15.20;99.90
25112;DHT22;13092;51.996;4.458;2022-10-16T01:50:19;15.30;99.90
25112;DHT22;13092;51.996;4.458;2022-10-16T01:52:50;15.30;99.90
25112;DHT22;13092;51.996;4.458;2022-10-16T01:55:24;15.20;99.90
25112;DHT22;13092;51.996;4.458;2022-10-16T01:57:55;15.20;99.90
25112;DHT22;13092;51.996;4.458;2022-10-16T02:00:25;15.20;99.90
25112;DHT22;13092;51.996;4.458;2022-10-16T02:02:55;15.20;99.90
25112;DHT22;13092;51.996;4.458;2022-10-16T02:05:28;15.20;99.90
25112;DHT22;13092;51.996;4.458;2022-10-16T02:07:58;15.20;99.90
25112;DHT22;13092;51.996;4.458;2022-10-16T02:10:31;15.20;99.90
25112;DHT22;13092;51.996;4.458;2022-10-16T02:13:06;15.20;99.90
25112;DHT22;13092;51.996;4.458;2022-10-16T02:15:35;15.20;99.90
25112;DHT22;13092;51.996;4.458;2022-10-16T02:18:04;15.20;99.90
25112;DHT22;13092;51.996;4.458;2022-10-16T02:20:36;15.20;99.90
25112;DHT22;13092;51.996;4.458;2022-10-16T02:23:12;15.20;99.90
25112;DHT22;13092;51.996;4.458;2022-10-16T02:25:44;15.10;99.90
25112;DHT22;13092;51.996;4.458;2022-10-16T02:28:16;15.20;99.90
25112;DHT22;13092;51.996;4.458;2022-10-16T02:30:48;15.20;99.90
25112;DHT22;13092;51.996;4.458;2022-10-16T02:33:19;15.20;99.90
25112;DHT22;13092;51.996;4.458;2022-10-16T02:35:49;15.20;99.90
25112;DHT22;13092;51.996;4.458;2022-10-16T02:38:19;15.30;99.90
25112;DHT22;13092;51.996;4.458;2022-10-16T02:40:48;15.20;99.90
25112;DHT22;13092;51.996;4.458;2022-10-16T02:43:17;15.30;99.90
25112;DHT22;13092;51.996;4.458;2022-10-16T02:45:46;15.20;99.90
25112;DHT22;13092;51.996;4.458;2022-10-16T02:48:14;15.20;99.90
25112;DHT22;13092;51.996;4.458;2022-10-16T02:50:42;15.20;99.90
25112;DHT22;13092;51.996;4.458;2022-10-16T02:53:09;15.20;99.90
25112;DHT22;13092;51.996;4.458;2022-10-16T02:55:37;15.20;99.90
25112;DHT22;13092;51.996;4.458;2022-10-16T02:58:06;15.20;99.90
25112;DHT22;13092;51.996;4.458;2022-10-16T03:00:35;15.10;99.90
25112;DHT22;13092;51.996;4.458;2022-10-16T03:03:03;15.10;99.90
25112;DHT22;13092;51.996;4.458;2022-10-16T03:05:31;15.10;99.90
25112;DHT22;13092;51.996;4.458;2022-10-16T03:07:59;15.10;99.90
25112;DHT22;13092;51.996;4.458;2022-10-16T03:10:27;15.10;99.90
25112;DHT22;13092;51.996;4.458;2022-10-16T03:12:55;15.00;99.90
25112;DHT22;13092;51.996;4.458;2022-10-16T03:15:24;15.20;99.90
25112;DHT22;13092;51.996;4.458;2022-10-16T03:17:54;15.00;99.90
25112;DHT22;13092;51.996;4.458;2022-10-16T03:20:21;15.00;99.90
25112;DHT22;13092;51.996;4.458;2022-10-16T03:22:50;15.10;99.90
25112;DHT22;13092;51.996;4.458;2022-10-16T03:25:18;15.10;99.90
25112;DHT22;13092;51.996;4.458;2022-10-16T03:27:46;15.10;99.90
25112;DHT22;13092;51.996;4.458;2022-10-16T03:30:14;15.10;99.90
25112;DHT22;13092;51.996;4.458;2022-10-16T03:32:43;15.10;99.90
25112;DHT22;13092;51.996;4.458;2022-10-16T03:35:13;15.10;99.90
25112;DHT22;13092;51.996;4.458;2022-10-16T03:37:41;15.10;99.90
25112;DHT22;13092;51.996;4.458;2022-10-16T03:40:10;15.10;99.90
25112;DHT22;13092;51.996;4.458;2022-10-16T03:42:38;15.10;99.90
25112;DHT22;13092;51.996;4.458;2022-10-16T03:45:06;15.10;99.90
25112;DHT22;13092;51.996;4.458;2022-10-16T03:47:34;15.10;99.90
25112;DHT22;13092;51.996;4.458;2022-10-16T03:50:03;15.10;99.90
25112;DHT22;13092;51.996;4.458;2022-10-16T03:52:33;15.20;99.90
25112;DHT22;13092;51.996;4.458;2022-10-16T03:55:01;15.20;99.90
25112;DHT22;13092;51.996;4.458;2022-10-16T03:57:29;15.20;99.90
25112;DHT22;13092;51.996;4.458;2022-10-16T04:00:00;15.20;99.90
25112;DHT22;13092;51.996;4.458;2022-10-16T04:02:28;15.10;99.90
25112;DHT22;13092;51.996;4.458;2022-10-16T04:04:56;15.20;99.90
25112;DHT22;13092;51.996;4.458;2022-10-16T04:07:24;15.20;99.90
25112;DHT22;13092;51.996;4.458;2022-10-16T04:09:54;15.10;99.90
25112;DHT22;13092;51.996;4.458;2022-10-16T04:12:22;15.20;99.90
25112;DHT22;13092;51.996;4.458;2022-10-16T04:14:50;15.10;99.90
25112;DHT22;13092;51.996;4.458;2022-10-16T04:17:18;15.10;99.90
25112;DHT22;13092;51.996;4.458;2022-10-16T04:19:46;15.10;99.90
25112;DHT22;13092;51.996;4.458;2022-10-16T04:22:14;15.10;99.90
25112;DHT22;13092;51.996;4.458;2022-10-16T04:24:42;15.10;99.90
25112;DHT22;13092;51.996;4.458;2022-10-16T04:27:11;15.20;99.90
25112;DHT22;13092;51.996;4.458;2022-10-16T04:29:39;15.20;99.90
25112;DHT22;13092;51.996;4.458;2022-10-16T04:32:08;15.20;99.90
25112;DHT22;13092;51.996;4.458;2022-10-16T04:34:38;15.10;99.90
25112;DHT22;13092;51.996;4.458;2022-10-16T04:37:07;15.10;99.90
25112;DHT22;13092;51.996;4.458;2022-10-16T04:39:35;15.10;99.90
25112;DHT22;13092;51.996;4.458;2022-10-16T04:42:03;15.10;99.90
25112;DHT22;13092;51.996;4.458;2022-10-16T04:44:32;15.10;99.90
25112;DHT22;13092;51.996;4.458;2022-10-16T04:47:00;15.10;99.90
25112;DHT22;13092;51.996;4.458;2022-10-16T04:49:29;15.10;99.90
25112;DHT22;13092;51.996;4.458;2022-10-16T04:51:57;15.10;99.90
25112;DHT22;13092;51.996;4.458;2022-10-16T04:54:25;15.10;99.90
25112;DHT22;13092;51.996;4.458;2022-10-16T04:56:53;15.20;99.90
25112;DHT22;13092;51.996;4.458;2022-10-16T04:59:22;15.10;99.90
25112;DHT22;13092;51.996;4.458;2022-10-16T05:01:53;15.20;99.90
25112;DHT22;13092;51.996;4.458;2022-10-16T05:04:21;15.10;99.90
25112;DHT22;13092;51.996;4.458;2022-10-16T05:06:50;15.10;99.90
25112;DHT22;13092;51.996;4.458;2022-10-16T05:09:18;15.10;99.90
25112;DHT22;13092;51.996;4.458;2022-10-16T05:11:46;15.30;99.90
25112;DHT22;13092;51.996;4.458;2022-10-16T05:14:14;15.10;99.90
25112;DHT22;13092;51.996;4.458;2022-10-16T05:16:42;15.10;99.90
25112;DHT22;13092;51.996;4.458;2022-10-16T05:19:11;15.10;99.90
25112;DHT22;13092;51.996;4.458;2022-10-16T05:21:55;15.20;99.90
25112;DHT22;13092;51.996;4.458;2022-10-16T05:24:23;15.10;99.90
25112;DHT22;13092;51.996;4.458;2022-10-16T05:26:51;15.10;99.90
25112;DHT22;13092;51.996;4.458;2022-10-16T05:29:19;15.10;99.90
25112;DHT22;13092;51.996;4.458;2022-10-16T05:31:50;15.10;99.90
25112;DHT22;13092;51.996;4.458;2022-10-16T05:34:20;15.10;99.90
25112;DHT22;13092;51.996;4.458;2022-10-16T05:36:48;15.10;99.90
25112;DHT22;13092;51.996;4.458;2022-10-16T05:39:16;15.00;99.90
25112;DHT22;13092;51.996;4.458;2022-10-16T05:41:44;15.00;99.90
25112;DHT22;13092;51.996;4.458;2022-10-16T05:44:12;14.90;99.90
25112;DHT22;13092;51.996;4.458;2022-10-16T05:46:42;14.90;99.90
25112;DHT22;13092;51.996;4.458;2022-10-16T05:49:10;14.90;99.90
25112;DHT22;13092;51.996;4.458;2022-10-16T05:51:40;14.90;99.90
25112;DHT22;13092;51.996;4.458;2022-10-16T05:54:08;14.80;99.90
25112;DHT22;13092;51.996;4.458;2022-10-16T05:56:36;14.80;99.90
25112;DHT22;13092;51.996;4.458;2022-10-16T05:59:05;14.70;99.90
25112;DHT22;13092;51.996;4.458;2022-10-16T06:01:33;14.80;99.90
25112;DHT22;13092;51.996;4.458;2022-10-16T06:04:02;14.80;99.90
25112;DHT22;13092;51.996;4.458;2022-10-16T06:06:30;14.80;99.90
25112;DHT22;13092;51.996;4.458;2022-10-16T06:08:59;14.80;99.90
25112;DHT22;13092;51.996;4.458;2022-10-16T06:11:29;14.80;99.90
25112;DHT22;13092;51.996;4.458;2022-10-16T06:13:59;14.80;99.90
25112;DHT22;13092;51.996;4.458;2022-10-16T06:16:28;14.80;99.90
25112;DHT22;13092;51.996;4.458;2022-10-16T06:18:56;14.70;99.90
25112;DHT22;13092;51.996;4.458;2022-10-16T06:21:27;14.90;99.90
25112;DHT22;13092;51.996;4.458;2022-10-16T06:23:56;14.80;99.90
25112;DHT22;13092;51.996;4.458;2022-10-16T06:26:27;14.90;99.90
25112;DHT22;13092;51.996;4.458;2022-10-16T06:28:58;14.80;99.90
25112;DHT22;13092;51.996;4.458;2022-10-16T06:31:27;14.80;99.90
25112;DHT22;13092;51.996;4.458;2022-10-16T06:33:58;14.80;99.90
25112;DHT22;13092;51.996;4.458;2022-10-16T06:36:26;14.80;99.90
25112;DHT22;13092;51.996;4.458;2022-10-16T06:38:54;14.70;99.90
25112;DHT22;13092;51.996;4.458;2022-10-16T06:41:24;14.70;99.90
25112;DHT22;13092;51.996;4.458;2022-10-16T06:43:52;14.70;99.90
25112;DHT22;13092;51.996;4.458;2022-10-16T06:46:22;14.70;99.90
25112;DHT22;13092;51.996;4.458;2022-10-16T06:48:50;14.70;99.90
25112;DHT22;13092;51.996;4.458;2022-10-16T06:51:20;14.60;99.90
25112;DHT22;13092;51.996;4.458;2022-10-16T06:53:50;14.80;99.90
25112;DHT22;13092;51.996;4.458;2022-10-16T06:56:35;14.80;99.90
25112;DHT22;13092;51.996;4.458;2022-10-16T06:59:04;14.80;99.90
25112;DHT22;13092;51.996;4.458;2022-10-16T07:01:32;14.80;99.90
25112;DHT22;13092;51.996;4.458;2022-10-16T07:04:01;14.80;99.90
25112;DHT22;13092;51.996;4.458;2022-10-16T07:06:32;14.70;99.90
25112;DHT22;13092;51.996;4.458;2022-10-16T07:09:06;14.70;99.90
25112;DHT22;13092;51.996;4.458;2022-10-16T07:11:36;14.70;99.90
25112;DHT22;13092;51.996;4.458;2022-10-16T07:14:05;14.70;99.90
25112;DHT22;13092;51.996;4.458;2022-10-16T07:16:37;14.80;99.90
25112;DHT22;13092;51.996;4.458;2022-10-16T07:19:05;14.70;99.90
25112;DHT22;13092;51.996;4.458;2022-10-16T07:21:34;14.70;99.90
25112;DHT22;13092;51.996;4.458;2022-10-16T07:24:05;14.70;99.90
25112;DHT22;13092;51.996;4.458;2022-10-16T07:26:36;14.80;99.90
25112;DHT22;13092;51.996;4.458;2022-10-16T07:29:06;14.80;99.90
25112;DHT22;13092;51.996;4.458;2022-10-16T07:31:34;14.80;99.90
25112;DHT22;13092;51.996;4.458;2022-10-16T07:34:04;14.80;99.90
25112;DHT22;13092;51.996;4.458;2022-10-16T07:36:32;14.80;99.90
25112;DHT22;13092;51.996;4.458;2022-10-16T07:39:00;14.90;99.90
25112;DHT22;13092;51.996;4.458;2022-10-16T07:41:28;15.10;99.90
25112;DHT22;13092;51.996;4.458;2022-10-16T07:43:59;15.00;99.90
25112;DHT22;13092;51.996;4.458;2022-10-16T07:46:28;15.00;99.90
25112;DHT22;13092;51.996;4.458;2022-10-16T07:48:56;15.00;99.90
25112;DHT22;13092;51.996;4.458;2022-10-16T07:51:25;15.10;99.90
25112;DHT22;13092;51.996;4.458;2022-10-16T07:53:53;15.10;99.90
25112;DHT22;13092;51.996;4.458;2022-10-16T07:56:22;15.00;99.90
25112;DHT22;13092;51.996;4.458;2022-10-16T07:58:50;15.10;99.90
25112;DHT22;13092;51.996;4.458;2022-10-16T08:01:20;15.20;99.90
25112;DHT22;13092;51.996;4.458;2022-10-16T08:03:50;15.20;99.90
25112;DHT22;13092;51.996;4.458;2022-10-16T08:06:19;15.20;99.90
25112;DHT22;13092;51.996;4.458;2022-10-16T08:08:54;15.20;99.90
25112;DHT22;13092;51.996;4.458;2022-10-16T08:11:22;15.20;99.90
25112;DHT22;13092;51.996;4.458;2022-10-16T08:13:50;15.20;99.90
25112;DHT22;13092;51.996;4.458;2022-10-16T08:16:19;15.30;99.90
25112;DHT22;13092;51.996;4.458;2022-10-16T08:18:50;15.30;99.90
25112;DHT22;13092;51.996;4.458;2022-10-16T08:21:20;15.30;99.90
25112;DHT22;13092;51.996;4.458;2022-10-16T08:23:50;15.30;99.90
25112;DHT22;13092;51.996;4.458;2022-10-16T08:26:25;15.40;99.90
25112;DHT22;13092;51.996;4.458;2022-10-16T08:28:53;15.40;99.90
25112;DHT22;13092;51.996;4.458;2022-10-16T08:31:23;15.50;99.90
25112;DHT22;13092;51.996;4.458;2022-10-16T08:33:53;15.50;99.90
25112;DHT22;13092;51.996;4.458;2022-10-16T08:36:21;15.40;99.90
25112;DHT22;13092;51.996;4.458;2022-10-16T08:38:49;15.60;99.90
25112;DHT22;13092;51.996;4.458;2022-10-16T08:45:15;15.60;99.90
25112;DHT22;13092;51.996;4.458;2022-10-16T08:47:54;15.70;99.90
25112;DHT22;13092;51.996;4.458;2022-10-16T08:50:27;15.70;99.90
25112;DHT22;13092;51.996;4.458;2022-10-16T08:52:55;15.70;99.90
25112;DHT22;13092;51.996;4.458;2022-10-16T08:55:34;15.80;99.90
25112;DHT22;13092;51.996;4.458;2022-10-16T08:58:11;15.80;99.90
25112;DHT22;13092;51.996;4.458;2022-10-16T09:00:41;15.80;99.90
25112;DHT22;13092;51.996;4.458;2022-10-16T09:03:17;15.90;99.90
25112;DHT22;13092;51.996;4.458;2022-10-16T09:06:03;15.90;99.90
25112;DHT22;13092;51.996;4.458;2022-10-16T09:08:42;15.90;99.90
25112;DHT22;13092;51.996;4.458;2022-10-16T09:11:17;15.90;99.90
25112;DHT22;13092;51.996;4.458;2022-10-16T09:13:51;16.00;99.90
25112;DHT22;13092;51.996;4.458;2022-10-16T09:16:25;16.00;99.90
25112;DHT22;13092;51.996;4.458;2022-10-16T09:19:03;16.00;99.90
25112;DHT22;13092;51.996;4.458;2022-10-16T09:21:36;16.10;99.90
25112;DHT22;13092;51.996;4.458;2022-10-16T09:24:12;16.10;99.90
25112;DHT22;13092;51.996;4.458;2022-10-16T09:26:42;16.10;99.90
25112;DHT22;13092;51.996;4.458;2022-10-16T09:29:11;16.20;99.90
25112;DHT22;13092;51.996;4.458;2022-10-16T09:31:40;16.20;99.90
25112;DHT22;13092;51.996;4.458;2022-10-16T09:34:17;16.20;99.90
25112;DHT22;13092;51.996;4.458;2022-10-16T09:36:48;16.30;99.90
25112;DHT22;13092;51.996;4.458;2022-10-16T09:39:17;16.30;99.90
25112;DHT22;13092;51.996;4.458;2022-10-16T09:41:45;16.40;99.90
25112;DHT22;13092;51.996;4.458;2022-10-16T09:44:19;16.60;99.90
25112;DHT22;13092;51.996;4.458;2022-10-16T09:47:00;16.40;99.90
25112;DHT22;13092;51.996;4.458;2022-10-16T09:49:29;16.50;99.90
25112;DHT22;13092;51.996;4.458;2022-10-16T09:52:05;16.50;99.90
25112;DHT22;13092;51.996;4.458;2022-10-16T09:54:33;16.60;99.90
25112;DHT22;13092;51.996;4.458;2022-10-16T09:57:05;16.60;99.90
25112;DHT22;13092;51.996;4.458;2022-10-16T09:59:33;16.60;99.90
25112;DHT22;13092;51.996;4.458;2022-10-16T10:02:04;16.70;99.90
25112;DHT22;13092;51.996;4.458;2022-10-16T10:04:41;16.80;99.90
25112;DHT22;13092;51.996;4.458;2022-10-16T10:07:18;16.90;99.90
25112;DHT22;13092;51.996;4.458;2022-10-16T10:09:49;16.90;99.90
25112;DHT22;13092;51.996;4.458;2022-10-16T10:12:19;17.00;99.90
25112;DHT22;13092;51.996;4.458;2022-10-16T10:14:54;16.90;99.90
25112;DHT22;13092;51.996;4.458;2022-10-16T10:17:23;17.10;99.90
25112;DHT22;13092;51.996;4.458;2022-10-16T10:19:54;17.00;99.90
25112;DHT22;13092;51.996;4.458;2022-10-16T10:22:28;17.00;99.90
25112;DHT22;13092;51.996;4.458;2022-10-16T10:25:10;16.90;99.90
25112;DHT22;13092;51.996;4.458;2022-10-16T10:27:47;17.00;99.90
25112;DHT22;13092;51.996;4.458;2022-10-16T10:30:24;17.10;99.90
25112;DHT22;13092;51.996;4.458;2022-10-16T10:33:12;17.10;99.90
25112;DHT22;13092;51.996;4.458;2022-10-16T10:35:46;17.20;99.90
25112;DHT22;13092;51.996;4.458;2022-10-16T10:38:27;17.20;99.90
25112;DHT22;13092;51.996;4.458;2022-10-16T10:41:11;17.30;99.90
25112;DHT22;13092;51.996;4.458;2022-10-16T10:43:50;17.40;99.90
25112;DHT22;13092;51.996;4.458;2022-10-16T10:46:32;17.60;99.90
25112;DHT22;13092;51.996;4.458;2022-10-16T10:49:10;17.60;99.90
25112;DHT22;13092;51.996;4.458;2022-10-16T10:51:52;17.60;99.90
25112;DHT22;13092;51.996;4.458;2022-10-16T10:54:26;17.60;99.90
25112;DHT22;13092;51.996;4.458;2022-10-16T10:56:59;17.60;99.90
25112;DHT22;13092;51.996;4.458;2022-10-16T10:59:55;17.70;99.90
25112;DHT22;13092;51.996;4.458;2022-10-16T11:02:33;17.90;99.90
25112;DHT22;13092;51.996;4.458;2022-10-16T11:05:31;17.90;99.90
25112;DHT22;13092;51.996;4.458;2022-10-16T11:08:10;18.00;99.90
25112;DHT22;13092;51.996;4.458;2022-10-16T11:10:46;18.00;99.90
25112;DHT22;13092;51.996;4.458;2022-10-16T11:13:21;18.00;99.90
25112;DHT22;13092;51.996;4.458;2022-10-16T11:15:53;18.20;99.90
25112;DHT22;13092;51.996;4.458;2022-10-16T11:18:26;18.20;99.90
25112;DHT22;13092;51.996;4.458;2022-10-16T11:20:59;18.20;99.90
25112;DHT22;13092;51.996;4.458;2022-10-16T11:23:31;18.30;99.90
25112;DHT22;13092;51.996;4.458;2022-10-16T11:26:04;18.30;99.90
25112;DHT22;13092;51.996;4.458;2022-10-16T11:28:38;18.30;99.90
25112;DHT22;13092;51.996;4.458;2022-10-16T11:31:11;18.40;99.90
25112;DHT22;13092;51.996;4.458;2022-10-16T11:33:45;18.40;99.90
25112;DHT22;13092;51.996;4.458;2022-10-16T11:36:18;18.50;99.90
25112;DHT22;13092;51.996;4.458;2022-10-16T11:38:52;18.50;99.90
25112;DHT22;13092;51.996;4.458;2022-10-16T11:41:27;18.50;99.90
25112;DHT22;13092;51.996;4.458;2022-10-16T11:44:09;18.70;99.90
25112;DHT22;13092;51.996;4.458;2022-10-16T11:46:48;18.70;99.90
25112;DHT22;13092;51.996;4.458;2022-10-16T11:49:36;18.70;99.90
25112;DHT22;13092;51.996;4.458;2022-10-16T11:52:10;18.70;99.90
25112;DHT22;13092;51.996;4.458;2022-10-16T11:54:45;18.60;99.90
25112;DHT22;13092;51.996;4.458;2022-10-16T11:57:18;18.60;99.90
25112;DHT22;13092;51.996;4.458;2022-10-16T11:59:51;18.60;99.90
25112;DHT22;13092;51.996;4.458;2022-10-16T12:02:33;18.50;99.90
25112;DHT22;13092;51.996;4.458;2022-10-16T12:05:13;18.50;99.90
25112;DHT22;13092;51.996;4.458;2022-10-16T12:07:48;18.50;99.90
25112;DHT22;13092;51.996;4.458;2022-10-16T12:10:22;18.50;99.90
25112;DHT22;13092;51.996;4.458;2022-10-16T12:12:53;18.60;99.90
25112;DHT22;13092;51.996;4.458;2022-10-16T12:15:25;18.50;99.90
25112;DHT22;13092;51.996;4.458;2022-10-16T12:18:21;18.50;99.90
25112;DHT22;13092;51.996;4.458;2022-10-16T12:20:55;18.50;99.90
25112;DHT22;13092;51.996;4.458;2022-10-16T12:23:26;18.50;99.90
25112;DHT22;13092;51.996;4.458;2022-10-16T12:25:57;18.50;99.90
25112;DHT22;13092;51.996;4.458;2022-10-16T12:28:27;18.50;99.90
25112;DHT22;13092;51.996;4.458;2022-10-16T12:30:58;18.50;99.90
25112;DHT22;13092;51.996;4.458;2022-10-16T12:33:28;18.50;99.90
25112;DHT22;13092;51.996;4.458;2022-10-16T12:35:58;18.40;99.90
25112;DHT22;13092;51.996;4.458;2022-10-16T12:38:28;18.50;99.90
25112;DHT22;13092;51.996;4.458;2022-10-16T12:41:02;18.40;99.90
25112;DHT22;13092;51.996;4.458;2022-10-16T12:43:39;18.60;99.90
25112;DHT22;13092;51.996;4.458;2022-10-16T12:46:24;18.70;99.90
25112;DHT22;13092;51.996;4.458;2022-10-16T12:48:52;18.40;99.90
25112;DHT22;13092;51.996;4.458;2022-10-16T12:51:36;18.50;99.90
25112;DHT22;13092;51.996;4.458;2022-10-16T12:54:11;18.50;99.90
25112;DHT22;13092;51.996;4.458;2022-10-16T12:56:51;18.60;99.90
25112;DHT22;13092;51.996;4.458;2022-10-16T12:59:31;18.60;99.90
25112;DHT22;13092;51.996;4.458;2022-10-16T13:02:16;18.70;99.90
25112;DHT22;13092;51.996;4.458;2022-10-16T13:05:08;18.70;99.90
25112;DHT22;13092;51.996;4.458;2022-10-16T13:07:50;18.60;99.90
25112;DHT22;13092;51.996;4.458;2022-10-16T13:10:25;18.60;99.90
25112;DHT22;13092;51.996;4.458;2022-10-16T13:13:20;18.60;99.90
25112;DHT22;13092;51.996;4.458;2022-10-16T13:16:04;18.60;99.90
25112;DHT22;13092;51.996;4.458;2022-10-16T13:18:43;18.70;99.90
25112;DHT22;13092;51.996;4.458;2022-10-16T13:21:21;18.70;99.90
25112;DHT22;13092;51.996;4.458;2022-10-16T13:23:59;18.80;99.90
25112;DHT22;13092;51.996;4.458;2022-10-16T13:26:39;18.90;99.90
25112;DHT22;13092;51.996;4.458;2022-10-16T13:29:10;18.90;99.90
25112;DHT22;13092;51.996;4.458;2022-10-16T13:31:39;18.80;99.90
25112;DHT22;13092;51.996;4.458;2022-10-16T13:34:12;18.90;99.90
25112;DHT22;13092;51.996;4.458;2022-10-16T13:36:46;18.80;99.90
25112;DHT22;13092;51.996;4.458;2022-10-16T13:39:16;18.90;99.90
25112;DHT22;13092;51.996;4.458;2022-10-16T13:42:02;18.90;99.90
25112;DHT22;13092;51.996;4.458;2022-10-16T13:44:39;18.80;99.90
25112;DHT22;13092;51.996;4.458;2022-10-16T13:47:16;18.90;99.90
25112;DHT22;13092;51.996;4.458;2022-10-16T13:49:45;19.00;99.90
25112;DHT22;13092;51.996;4.458;2022-10-16T13:52:17;19.10;99.90
25112;DHT22;13092;51.996;4.458;2022-10-16T13:54:46;19.10;99.90
25112;DHT22;13092;51.996;4.458;2022-10-16T13:57:15;19.10;99.90
25112;DHT22;13092;51.996;4.458;2022-10-16T13:59:55;19.00;99.90
25112;DHT22;13092;51.996;4.458;2022-10-16T14:02:27;19.20;99.90
25112;DHT22;13092;51.996;4.458;2022-10-16T14:04:57;19.20;99.90
25112;DHT22;13092;51.996;4.458;2022-10-16T14:07:27;19.20;99.90
25112;DHT22;13092;51.996;4.458;2022-10-16T14:09:59;19.20;99.90
25112;DHT22;13092;51.996;4.458;2022-10-16T14:12:28;19.30;99.90
25112;DHT22;13092;51.996;4.458;2022-10-16T14:14:59;19.20;99.90
25112;DHT22;13092;51.996;4.458;2022-10-16T14:17:28;19.30;99.90
25112;DHT22;13092;51.996;4.458;2022-10-16T14:19:58;19.30;99.90
25112;DHT22;13092;51.996;4.458;2022-10-16T14:22:33;19.30;99.90
25112;DHT22;13092;51.996;4.458;2022-10-16T14:25:02;19.30;99.90
25112;DHT22;13092;51.996;4.458;2022-10-16T14:27:31;19.20;99.90
25112;DHT22;13092;51.996;4.458;2022-10-16T14:30:17;19.30;99.90
25112;DHT22;13092;51.996;4.458;2022-10-16T14:32:54;19.30;99.90
25112;DHT22;13092;51.996;4.458;2022-10-16T14:35:28;19.30;99.90
25112;DHT22;13092;51.996;4.458;2022-10-16T14:37:58;19.30;99.90
25112;DHT22;13092;51.996;4.458;2022-10-16T14:40:28;19.30;99.90
25112;DHT22;13092;51.996;4.458;2022-10-16T14:43:00;19.30;99.90
25112;DHT22;13092;51.996;4.458;2022-10-16T14:45:31;19.30;99.90
25112;DHT22;13092;51.996;4.458;2022-10-16T14:48:02;19.30;99.90
25112;DHT22;13092;51.996;4.458;2022-10-16T14:50:31;19.30;99.90
25112;DHT22;13092;51.996;4.458;2022-10-16T14:52:59;19.30;99.90
25112;DHT22;13092;51.996;4.458;2022-10-16T14:55:28;19.30;99.90
25112;DHT22;13092;51.996;4.458;2022-10-16T14:57:58;19.30;99.90
25112;DHT22;13092;51.996;4.458;2022-10-16T15:00:27;19.30;99.90
25112;DHT22;13092;51.996;4.458;2022-10-16T15:02:56;19.30;99.90
25112;DHT22;13092;51.996;4.458;2022-10-16T15:05:26;19.20;99.90
25112;DHT22;13092;51.996;4.458;2022-10-16T15:07:55;19.20;99.90
25112;DHT22;13092;51.996;4.458;2022-10-16T15:10:24;19.10;99.90
25112;DHT22;13092;51.996;4.458;2022-10-16T15:12:53;19.20;99.90
25112;DHT22;13092;51.996;4.458;2022-10-16T15:15:31;19.20;99.90
25112;DHT22;13092;51.996;4.458;2022-10-16T15:18:01;19.10;99.90
25112;DHT22;13092;51.996;4.458;2022-10-16T15:20:31;19.10;99.90
25112;DHT22;13092;51.996;4.458;2022-10-16T15:23:01;19.00;99.90
25112;DHT22;13092;51.996;4.458;2022-10-16T15:25:35;19.00;99.90
25112;DHT22;13092;51.996;4.458;2022-10-16T15:28:06;18.90;99.90
25112;DHT22;13092;51.996;4.458;2022-10-16T15:30:35;19.00;99.90
25112;DHT22;13092;51.996;4.458;2022-10-16T15:33:05;19.00;99.90
25112;DHT22;13092;51.996;4.458;2022-10-16T15:35:37;19.00;99.90
25112;DHT22;13092;51.996;4.458;2022-10-16T15:38:05;19.00;99.90
25112;DHT22;13092;51.996;4.458;2022-10-16T15:40:33;19.10;99.90
25112;DHT22;13092;51.996;4.458;2022-10-16T15:43:01;19.00;99.90
25112;DHT22;13092;51.996;4.458;2022-10-16T15:45:29;19.00;99.90
25112;DHT22;13092;51.996;4.458;2022-10-16T16:25:27;18.40;99.90
25112;DHT22;13092;51.996;4.458;2022-10-16T16:27:55;18.30;99.90
25112;DHT22;13092;51.996;4.458;2022-10-16T16:30:23;18.30;99.90
25112;DHT22;13092;51.996;4.458;2022-10-16T16:32:54;18.30;99.90
25112;DHT22;13092;51.996;4.458;2022-10-16T16:35:22;18.20;99.90
25112;DHT22;13092;51.996;4.458;2022-10-16T16:37:50;18.20;99.90
25112;DHT22;13092;51.996;4.458;2022-10-16T16:40:18;18.20;99.90